Time;durP1;ratioP1;P1;durP2;ratioP2;P2;SDS_P1;SDS_P2;PMS_P1;PMS_P2;Temp;Humidity;BMP_temperature;BMP_pressure;BME280_temperature;BME280_humidity;BME280_pressure;Samples;Min_cycle;Max_cycle;Signal;HPM_P1;HPM_P2
2023/07/28 00:00:44;;;;;;;0.80;0.67;;;17.30;99.90;;;;;;5013644;28;20904;-81
2023/07/28 00:03:10;;;;;;;1.43;1.30;;;17.30;99.90;;;;;;5013927;28;20475;-81
2023/07/28 00:05:37;;;;;;;0.90;0.90;;;17.20;99.90;;;;;;5013878;28;20455;-81
2023/07/28 00:08:04;;;;;;;0.70;0.70;;;17.20;99.90;;;;;;5013941;28;20447;-81
2023/07/28 00:10:31;;;;;;;0.93;0.73;;;17.20;99.90;;;;;;5013870;28;20447;-81
2023/07/28 00:13:01;;;;;;;1.10;0.83;;;17.20;99.90;;;;;;5013439;28;20964;-81
2023/07/28 00:15:27;;;;;;;2.03;1.00;;;17.20;99.90;;;;;;5013531;28;20955;-81
2023/07/28 00:17:54;;;;;;;0.77;0.77;;;17.20;99.90;;;;;;5013749;28;20462;-81
2023/07/28 00:20:21;;;;;;;1.00;0.90;;;17.10;99.90;;;;;;5013580;28;20849;-81
2023/07/28 00:22:47;;;;;;;1.00;0.83;;;17.10;99.90;;;;;;5013659;28;20455;-81
2023/07/28 00:25:14;;;;;;;3.40;1.10;;;17.10;99.90;;;;;;5013536;28;20452;-81
2023/07/28 00:27:41;;;;;;;0.87;0.87;;;17.20;99.90;;;;;;5012903;28;20439;-81
2023/07/28 00:30:11;;;;;;;1.10;0.90;;;17.10;99.90;;;;;;5013479;28;20416;-81
2023/07/28 00:32:38;;;;;;;1.20;0.97;;;17.10;99.90;;;;;;5013514;28;20974;-81
2023/07/28 00:35:05;;;;;;;2.97;1.40;;;17.10;99.90;;;;;;5013211;28;20848;-81
2023/07/28 00:37:32;;;;;;;1.20;0.73;;;17.10;99.90;;;;;;5013276;28;20454;-82
2023/07/28 00:39:59;;;;;;;2.50;1.10;;;17.10;99.90;;;;;;5013452;28;20630;-81
2023/07/28 00:42:26;;;;;;;1.60;0.70;;;17.00;99.90;;;;;;5013571;28;20439;-81
2023/07/28 00:44:52;;;;;;;1.00;0.90;;;17.00;99.90;;;;;;5013693;28;20475;-81
2023/07/28 00:47:20;;;;;;;2.97;1.27;;;17.00;99.90;;;;;;5013485;28;20448;-81
2023/07/28 00:49:47;;;;;;;0.50;0.50;;;17.00;99.90;;;;;;5013447;28;20451;-82
2023/07/28 00:52:14;;;;;;;1.30;0.97;;;17.00;99.90;;;;;;5013477;28;20440;-81
2023/07/28 00:54:41;;;;;;;1.20;1.07;;;16.90;99.90;;;;;;5013012;28;20468;-81
2023/07/28 00:57:08;;;;;;;2.03;1.07;;;16.90;99.90;;;;;;5013157;28;20436;-81
2023/07/28 00:59:35;;;;;;;0.53;0.53;;;16.90;99.90;;;;;;5013297;28;20451;-81
2023/07/28 01:02:02;;;;;;;2.13;1.10;;;16.90;99.90;;;;;;5013213;28;20487;-81
2023/07/28 01:04:30;;;;;;;1.27;1.13;;;16.80;99.90;;;;;;5013234;28;20570;-81
2023/07/28 01:07:05;;;;;;;1.63;1.33;;;16.80;99.90;;;;;;5013312;28;20440;-81
2023/07/28 01:09:40;;;;;;;1.63;1.13;;;16.80;99.90;;;;;;5013021;28;20511;-81
2023/07/28 01:12:09;;;;;;;0.90;0.80;;;16.80;99.90;;;;;;5013243;28;20498;-81
2023/07/28 01:14:36;;;;;;;1.00;0.90;;;16.80;99.90;;;;;;5013149;28;20511;-81
2023/07/28 01:17:03;;;;;;;1.33;1.23;;;16.70;99.90;;;;;;5013216;28;20925;-81
2023/07/28 01:19:31;;;;;;;0.70;0.70;;;16.70;99.90;;;;;;5013162;28;20451;-81
2023/07/28 01:22:15;;;;;;;0.80;0.80;;;16.60;99.90;;;;;;5013095;28;20490;-81
2023/07/28 01:24:52;;;;;;;1.07;0.80;;;16.60;99.90;;;;;;5012812;28;20475;-81
2023/07/28 01:27:21;;;;;;;2.00;0.60;;;16.60;99.90;;;;;;5012879;28;20421;-82
2023/07/28 01:29:48;;;;;;;2.80;1.40;;;16.60;99.90;;;;;;5012824;28;20439;-81
2023/07/28 01:32:15;;;;;;;1.57;0.80;;;16.60;99.90;;;;;;5012768;28;20999;-81
2023/07/28 01:34:42;;;;;;;1.57;1.40;;;16.60;99.90;;;;;;5012466;28;20836;-81
2023/07/28 01:37:09;;;;;;;1.00;0.90;;;16.70;99.90;;;;;;5013491;28;20448;-81
2023/07/28 01:39:35;;;;;;;1.40;1.30;;;16.70;99.90;;;;;;5017270;28;20490;-81
2023/07/28 01:42:02;;;;;;;2.53;1.03;;;16.70;99.90;;;;;;5016370;28;20483;-81
2023/07/28 01:44:30;;;;;;;0.80;0.70;;;16.70;99.90;;;;;;5016256;28;20467;-81
2023/07/28 01:46:57;;;;;;;1.20;1.07;;;16.70;99.90;;;;;;5016482;28;20526;-81
2023/07/28 01:49:24;;;;;;;1.47;0.90;;;16.60;99.90;;;;;;5016151;28;20439;-81
2023/07/28 01:51:50;;;;;;;0.70;0.70;;;16.60;99.90;;;;;;5016365;28;20443;-81
2023/07/28 01:54:17;;;;;;;0.87;0.87;;;16.70;99.90;;;;;;5016251;28;20494;-81
2023/07/28 01:56:44;;;;;;;1.07;0.77;;;16.60;99.90;;;;;;5016336;28;20452;-81
2023/07/28 01:59:10;;;;;;;0.83;0.83;;;16.60;99.90;;;;;;5016169;28;20967;-81
2023/07/28 02:01:38;;;;;;;1.30;0.80;;;16.60;99.90;;;;;;5016132;28;20486;-81
2023/07/28 02:04:05;;;;;;;0.67;0.60;;;16.50;99.90;;;;;;5016363;28;20496;-81
2023/07/28 02:06:32;;;;;;;1.17;0.80;;;16.50;99.90;;;;;;5016107;28;20443;-81
2023/07/28 02:08:59;;;;;;;1.00;0.90;;;16.50;99.90;;;;;;5016052;28;20451;-81
2023/07/28 02:11:26;;;;;;;1.17;0.77;;;16.50;99.90;;;;;;5015995;28;20490;-81
2023/07/28 02:13:53;;;;;;;0.70;0.70;;;16.60;99.90;;;;;;5015888;28;20479;-81
2023/07/28 02:16:19;;;;;;;1.00;0.87;;;16.50;99.90;;;;;;5015620;28;20965;-81
2023/07/28 02:18:47;;;;;;;1.30;0.93;;;16.50;99.90;;;;;;5015799;28;20483;-81
2023/07/28 02:21:14;;;;;;;0.80;0.80;;;16.50;99.90;;;;;;5015687;28;20490;-81
2023/07/28 02:23:41;;;;;;;0.70;0.70;;;16.50;99.90;;;;;;5015487;28;20455;-81
2023/07/28 02:26:08;;;;;;;1.10;1.00;;;16.50;99.90;;;;;;5015747;28;20447;-81
2023/07/28 02:28:35;;;;;;;1.53;0.77;;;16.50;99.90;;;;;;5015491;28;20443;-81
2023/07/28 02:31:01;;;;;;;0.80;0.77;;;16.50;99.90;;;;;;5015610;28;20448;-81
2023/07/28 02:33:29;;;;;;;1.47;0.83;;;16.50;99.90;;;;;;5015292;28;20468;-82
2023/07/28 02:35:57;;;;;;;0.90;0.80;;;16.40;99.90;;;;;;5015585;28;20431;-81
2023/07/28 02:38:24;;;;;;;0.70;0.63;;;16.50;99.90;;;;;;5015471;28;20451;-81
2023/07/28 02:40:50;;;;;;;0.60;0.60;;;16.40;99.90;;;;;;5015403;28;20483;-81
2023/07/28 02:43:17;;;;;;;1.33;1.20;;;16.40;99.90;;;;;;5015460;28;20478;-81
2023/07/28 02:45:44;;;;;;;0.80;0.70;;;16.40;99.90;;;;;;5015021;28;20824;-81
2023/07/28 02:48:11;;;;;;;1.00;0.90;;;16.40;99.90;;;;;;5015265;28;20479;-81
2023/07/28 02:50:38;;;;;;;5.53;1.07;;;16.40;99.90;;;;;;5014571;28;20454;-81
2023/07/28 02:53:06;;;;;;;0.63;0.63;;;16.40;99.90;;;;;;5015151;28;20495;-81
2023/07/28 02:55:33;;;;;;;0.97;0.80;;;16.40;99.90;;;;;;5015153;28;20447;-81
2023/07/28 02:57:59;;;;;;;1.20;1.10;;;16.40;99.90;;;;;;5015112;28;20451;-81
2023/07/28 03:00:26;;;;;;;1.13;1.03;;;16.40;99.90;;;;;;5015055;28;20463;-81
2023/07/28 03:02:53;;;;;;;2.17;1.20;;;16.40;99.90;;;;;;5014558;28;21030;-81
2023/07/28 03:05:19;;;;;;;1.87;1.23;;;16.40;99.90;;;;;;5014966;28;20439;-81
2023/07/28 03:07:48;;;;;;;1.83;1.13;;;16.40;99.90;;;;;;5014942;28;20940;-81
2023/07/28 03:10:17;;;;;;;1.00;0.80;;;16.30;99.90;;;;;;5014911;28;20486;-81
2023/07/28 03:12:43;;;;;;;0.90;0.77;;;16.40;99.90;;;;;;5014729;28;20522;-81
2023/07/28 03:15:10;;;;;;;1.20;1.00;;;16.40;99.90;;;;;;5014525;28;20957;-81
2023/07/28 03:17:37;;;;;;;1.20;1.10;;;16.40;99.90;;;;;;5014751;28;20455;-81
2023/07/28 03:20:04;;;;;;;0.97;0.83;;;16.40;99.90;;;;;;5014682;28;20475;-81
2023/07/28 03:22:31;;;;;;;2.27;0.90;;;16.40;99.90;;;;;;5014292;28;21038;-81
2023/07/28 03:24:58;;;;;;;1.27;1.17;;;16.40;99.90;;;;;;5014545;28;20467;-81
2023/07/28 03:27:26;;;;;;;1.03;0.80;;;16.40;99.90;;;;;;5014283;28;20944;-81
2023/07/28 03:29:53;;;;;;;1.37;0.73;;;16.40;99.90;;;;;;5014815;28;20447;-81
2023/07/28 03:32:19;;;;;;;2.60;1.00;;;16.50;99.90;;;;;;5014678;28;20451;-81
2023/07/28 03:34:46;;;;;;;1.47;1.10;;;16.50;99.90;;;;;;5014162;28;20487;-81
2023/07/28 03:37:13;;;;;;;0.93;0.90;;;16.50;99.90;;;;;;5014444;28;20448;-81
2023/07/28 03:39:39;;;;;;;1.40;1.03;;;16.50;99.90;;;;;;5014083;28;20458;-81
2023/07/28 03:42:07;;;;;;;6.30;1.00;;;16.50;99.90;;;;;;5014820;28;20487;-81
2023/07/28 03:44:37;;;;;;;2.23;1.20;;;16.60;99.90;;;;;;5014456;28;20463;-81
2023/07/28 03:47:04;;;;;;;0.80;0.80;;;16.70;99.90;;;;;;5014246;28;20444;-81
2023/07/28 03:49:31;;;;;;;1.17;1.00;;;16.60;99.90;;;;;;5013959;28;20446;-81
2023/07/28 03:51:57;;;;;;;4.17;1.07;;;16.60;99.90;;;;;;5014166;28;20459;-81
2023/07/28 03:54:24;;;;;;;1.07;0.77;;;16.60;99.90;;;;;;5013755;28;20984;-81
2023/07/28 03:56:51;;;;;;;2.30;1.20;;;16.60;99.90;;;;;;5014060;28;20452;-82
2023/07/28 03:59:18;;;;;;;1.40;1.30;;;16.60;99.90;;;;;;5013841;28;20443;-81
2023/07/28 04:01:46;;;;;;;1.80;0.83;;;16.60;99.90;;;;;;5013171;28;20483;-81
2023/07/28 04:04:13;;;;;;;2.83;0.87;;;16.60;99.90;;;;;;5013903;28;20478;-81
2023/07/28 04:06:44;;;;;;;1.67;1.13;;;16.60;99.90;;;;;;5013964;28;20459;-81
2023/07/28 04:09:14;;;;;;;1.63;1.03;;;16.70;99.90;;;;;;5013941;28;20440;-81
2023/07/28 04:11:41;;;;;;;1.03;0.73;;;16.70;99.90;;;;;;5013857;28;20459;-81
2023/07/28 04:14:07;;;;;;;0.90;0.70;;;16.70;99.90;;;;;;5013766;28;20475;-81
2023/07/28 04:16:34;;;;;;;1.97;0.83;;;16.80;99.90;;;;;;5013843;28;20464;-81
2023/07/28 04:19:03;;;;;;;1.37;1.20;;;16.80;99.90;;;;;;5013739;28;20534;-81
2023/07/28 04:21:29;;;;;;;1.23;0.80;;;16.80;99.90;;;;;;5013706;28;20483;-81
2023/07/28 04:23:56;;;;;;;0.83;0.83;;;16.80;99.90;;;;;;5013668;28;20475;-81
2023/07/28 04:26:24;;;;;;;0.90;0.80;;;16.90;99.90;;;;;;5013470;28;20431;-81
2023/07/28 04:28:51;;;;;;;1.10;0.97;;;16.90;99.90;;;;;;5013675;28;20451;-81
2023/07/28 04:31:18;;;;;;;1.73;1.27;;;16.90;99.90;;;;;;5013640;28;20450;-81
2023/07/28 04:33:45;;;;;;;1.37;0.80;;;16.90;99.90;;;;;;5013115;28;20484;-81
2023/07/28 04:36:13;;;;;;;0.90;0.90;;;16.90;99.90;;;;;;5013569;28;20435;-81
2023/07/28 04:38:40;;;;;;;0.90;0.90;;;16.90;99.90;;;;;;5013706;28;20482;-82
2023/07/28 04:41:06;;;;;;;1.20;1.10;;;17.00;99.90;;;;;;5013472;28;20443;-82
2023/07/28 04:43:33;;;;;;;1.00;0.67;;;17.00;99.90;;;;;;5013453;28;20463;-81
2023/07/28 04:46:00;;;;;;;2.30;1.23;;;16.90;99.90;;;;;;5013497;28;20447;-82
2023/07/28 04:48:28;;;;;;;0.80;0.80;;;16.90;99.90;;;;;;5013463;28;20462;-81
2023/07/28 04:50:55;;;;;;;1.80;1.40;;;16.90;99.90;;;;;;5013423;28;20502;-81
2023/07/28 04:53:23;;;;;;;1.00;0.80;;;16.90;99.90;;;;;;5013363;28;20466;-82
2023/07/28 04:55:49;;;;;;;1.37;1.10;;;16.90;99.90;;;;;;5013422;28;20824;-81
2023/07/28 04:58:16;;;;;;;2.13;0.97;;;16.90;99.90;;;;;;5013215;28;20447;-82
2023/07/28 05:00:43;;;;;;;1.17;1.07;;;16.90;99.90;;;;;;5013179;28;20811;-83
2023/07/28 05:03:09;;;;;;;1.20;0.90;;;16.90;99.90;;;;;;5013220;28;20506;-81
2023/07/28 05:05:36;;;;;;;1.33;0.90;;;16.90;99.90;;;;;;5012997;28;20971;-84
2023/07/28 05:08:03;;;;;;;1.37;1.27;;;16.90;99.90;;;;;;5013296;28;20527;-84
2023/07/28 05:10:31;;;;;;;1.00;0.90;;;16.80;99.90;;;;;;5013301;28;20448;-84
2023/07/28 05:12:57;;;;;;;0.97;0.97;;;16.70;99.90;;;;;;5014966;28;20450;-84
2023/07/28 05:15:24;;;;;;;1.20;1.00;;;16.60;99.90;;;;;;5017076;28;20462;-84
2023/07/28 05:17:51;;;;;;;1.20;1.10;;;16.50;99.90;;;;;;5017041;28;20443;-84
2023/07/28 05:20:18;;;;;;;0.87;0.80;;;16.40;99.90;;;;;;5016773;28;20443;-84
2023/07/28 05:22:44;;;;;;;1.50;1.07;;;16.40;99.90;;;;;;5016530;28;20475;-84
2023/07/28 05:25:11;;;;;;;1.60;0.90;;;16.30;99.90;;;;;;5016964;28;20867;-82
2023/07/28 05:27:39;;;;;;;1.47;1.00;;;16.30;99.90;;;;;;5016840;28;20447;-82
2023/07/28 05:30:07;;;;;;;1.37;1.20;;;16.20;99.90;;;;;;5016552;28;20438;-82
2023/07/28 05:32:34;;;;;;;0.93;0.70;;;16.20;99.90;;;;;;5016780;28;20451;-82
2023/07/28 05:35:01;;;;;;;1.70;1.17;;;16.20;99.90;;;;;;5016194;28;20853;-82
2023/07/28 05:37:27;;;;;;;1.27;0.97;;;16.30;99.90;;;;;;5016615;28;20466;-82
2023/07/28 05:39:54;;;;;;;0.93;0.83;;;16.30;99.90;;;;;;5016602;28;20443;-82
2023/07/28 05:42:21;;;;;;;2.07;1.33;;;16.30;99.90;;;;;;5016511;28;20502;-82
2023/07/28 05:44:49;;;;;;;1.07;0.93;;;16.30;99.90;;;;;;5016127;28;21044;-82
2023/07/28 05:47:16;;;;;;;1.67;0.90;;;16.40;99.90;;;;;;5016495;28;20459;-82
2023/07/28 05:49:42;;;;;;;1.00;0.83;;;16.50;99.90;;;;;;5016092;28;20454;-82
2023/07/28 05:52:09;;;;;;;1.40;1.20;;;16.30;99.90;;;;;;5016397;28;20470;-83
2023/07/28 05:54:36;;;;;;;1.53;0.90;;;16.30;99.90;;;;;;5016314;28;20456;-82
2023/07/28 05:57:03;;;;;;;1.40;1.20;;;16.40;99.90;;;;;;5016146;28;20451;-82
2023/07/28 05:59:30;;;;;;;1.20;1.10;;;16.40;99.90;;;;;;5016510;28;20443;-82
2023/07/28 06:01:58;;;;;;;1.97;1.47;;;16.40;99.90;;;;;;5016457;28;20475;-83
2023/07/28 06:04:24;;;;;;;1.23;1.10;;;16.40;99.90;;;;;;5016036;28;20495;-83
2023/07/28 06:06:51;;;;;;;1.47;1.37;;;16.40;99.90;;;;;;5015874;28;20902;-84
2023/07/28 06:09:18;;;;;;;3.03;1.20;;;16.40;99.90;;;;;;5016500;28;20815;-83
2023/07/28 06:11:45;;;;;;;1.60;1.17;;;16.40;99.90;;;;;;5016075;28;20446;-83
2023/07/28 06:14:12;;;;;;;0.80;0.80;;;16.40;99.90;;;;;;5015644;28;20460;-83
2023/07/28 06:16:39;;;;;;;1.10;1.00;;;16.40;99.90;;;;;;5015966;28;20451;-83
2023/07/28 06:19:08;;;;;;;1.57;1.07;;;16.40;99.90;;;;;;5015883;28;20502;-82
2023/07/28 06:21:35;;;;;;;1.60;0.90;;;16.40;99.90;;;;;;5015987;28;20530;-83
2023/07/28 06:24:01;;;;;;;3.57;2.07;;;16.50;99.90;;;;;;5014624;28;20475;-83
2023/07/28 06:26:28;;;;;;;1.30;1.27;;;16.40;99.90;;;;;;5015781;28;20457;-83
2023/07/28 06:28:55;;;;;;;1.30;1.20;;;16.40;99.90;;;;;;5015649;28;20462;-82
2023/07/28 06:31:22;;;;;;;1.50;1.40;;;16.40;99.90;;;;;;5015722;28;20439;-82
2023/07/28 06:33:48;;;;;;;1.77;1.27;;;16.40;99.90;;;;;;5015628;28;20494;-83
2023/07/28 06:36:17;;;;;;;1.33;1.23;;;16.40;99.90;;;;;;5015314;28;20432;-83
2023/07/28 06:38:48;;;;;;;3.37;1.30;;;16.40;99.90;;;;;;5015538;28;20855;-83
2023/07/28 06:41:14;;;;;;;3.27;1.13;;;16.50;99.90;;;;;;5015483;28;20498;-83
2023/07/28 06:43:41;;;;;;;1.47;1.37;;;16.50;99.90;;;;;;5015068;28;20480;-83
2023/07/28 06:46:08;;;;;;;0.97;0.73;;;16.50;99.90;;;;;;5015083;28;21031;-83
2023/07/28 06:48:35;;;;;;;1.60;1.17;;;16.50;99.90;;;;;;5015339;28;20455;-83
2023/07/28 06:51:01;;;;;;;0.80;0.80;;;16.60;99.90;;;;;;5015287;28;20443;-83
2023/07/28 06:53:29;;;;;;;1.43;1.00;;;16.60;99.90;;;;;;5014834;28;20877;-83
2023/07/28 06:55:56;;;;;;;1.57;1.00;;;16.70;99.90;;;;;;5015691;28;20456;-83
2023/07/28 06:58:23;;;;;;;1.17;1.07;;;16.70;99.90;;;;;;5015109;28;20456;-83
2023/07/28 07:00:49;;;;;;;1.70;1.50;;;16.80;99.90;;;;;;5015106;28;20462;-84
2023/07/28 07:03:17;;;;;;;1.10;0.70;;;16.80;99.90;;;;;;5014851;28;20491;-83
2023/07/28 07:05:44;;;;;;;0.80;0.80;;;16.80;99.90;;;;;;5015003;28;20529;-84
2023/07/28 07:08:10;;;;;;;3.90;1.17;;;16.80;99.90;;;;;;5014984;28;20452;-84
2023/07/28 07:10:38;;;;;;;1.23;0.97;;;16.90;99.90;;;;;;5014922;28;20447;-84
2023/07/28 07:13:05;;;;;;;2.40;0.90;;;17.00;99.90;;;;;;5014537;28;20482;-82
2023/07/28 07:15:35;;;;;;;1.37;1.20;;;17.00;99.90;;;;;;5014587;28;20432;-81
2023/07/28 07:18:02;;;;;;;1.30;1.20;;;17.20;99.90;;;;;;5014705;28;20448;-83
2023/07/28 07:20:29;;;;;;;1.93;1.30;;;17.20;99.90;;;;;;5014589;28;20451;-82
2023/07/28 07:22:55;;;;;;;1.23;1.13;;;17.20;99.90;;;;;;5015175;28;20471;-83
2023/07/28 07:25:22;;;;;;;1.20;1.10;;;17.20;99.90;;;;;;5014677;28;20440;-82
2023/07/28 07:27:50;;;;;;;1.43;1.00;;;17.20;99.90;;;;;;5014798;28;20940;-82
2023/07/28 07:30:17;;;;;;;2.70;0.90;;;17.40;99.90;;;;;;5014574;28;20458;-82
2023/07/28 07:32:44;;;;;;;1.00;0.80;;;17.40;99.90;;;;;;5014418;28;20458;-82
2023/07/28 07:35:11;;;;;;;1.53;1.17;;;17.50;99.90;;;;;;5013750;28;20483;-82
2023/07/28 07:37:38;;;;;;;5.03;1.77;;;17.60;99.90;;;;;;5014540;28;20451;-83
2023/07/28 07:40:07;;;;;;;1.07;0.97;;;17.60;99.90;;;;;;5014094;28;20944;-83
2023/07/28 07:42:42;;;;;;;1.20;1.10;;;17.70;99.90;;;;;;5014118;28;20480;-82
2023/07/28 07:45:12;;;;;;;1.17;1.07;;;17.70;99.90;;;;;;5014356;28;20463;-83
2023/07/28 07:47:39;;;;;;;1.27;1.17;;;17.80;99.90;;;;;;5014037;28;20447;-83
2023/07/28 07:50:08;;;;;;;1.30;0.97;;;17.80;99.90;;;;;;5014221;28;20447;-83
2023/07/28 07:52:35;;;;;;;1.63;1.07;;;17.80;99.90;;;;;;5013878;28;20451;-82
2023/07/28 07:55:02;;;;;;;1.50;1.23;;;17.90;99.90;;;;;;5013768;28;20837;-82
2023/07/28 07:57:29;;;;;;;1.30;1.20;;;18.00;99.90;;;;;;5014137;28;20444;-82
2023/07/28 07:59:56;;;;;;;0.90;0.90;;;18.00;99.90;;;;;;5013903;28;20455;-82
2023/07/28 08:02:24;;;;;;;5.47;1.07;;;18.00;99.90;;;;;;5013954;28;20459;-82
2023/07/28 08:04:53;;;;;;;0.60;0.57;;;18.10;99.90;;;;;;5013793;28;21019;-82
2023/07/28 08:07:19;;;;;;;1.87;1.20;;;18.30;99.90;;;;;;5013937;28;20478;-82
2023/07/28 08:09:46;;;;;;;1.00;0.80;;;18.40;99.90;;;;;;5013670;28;20439;-82
2023/07/28 08:12:13;;;;;;;0.70;0.70;;;18.60;99.90;;;;;;5013911;28;20455;-83
2023/07/28 08:14:40;;;;;;;0.73;0.63;;;18.80;99.90;;;;;;5013747;28;20476;-83
2023/07/28 08:17:07;;;;;;;0.80;0.80;;;19.00;99.90;;;;;;5013482;28;20803;-83
2023/07/28 08:19:35;;;;;;;1.60;0.83;;;19.10;99.90;;;;;;5013496;28;20944;-83
2023/07/28 08:22:03;;;;;;;1.30;0.83;;;19.40;99.90;;;;;;5013770;28;20451;-83
2023/07/28 08:24:30;;;;;;;3.43;0.90;;;19.60;99.90;;;;;;5013620;28;20526;-83
2023/07/28 08:26:56;;;;;;;0.70;0.70;;;19.80;99.90;;;;;;5013709;28;20538;-84
2023/07/28 08:29:23;;;;;;;0.60;0.60;;;20.00;99.90;;;;;;5013377;28;20455;-83
2023/07/28 08:31:50;;;;;;;1.47;0.97;;;20.00;99.90;;;;;;5013666;28;20453;-83
2023/07/28 08:34:18;;;;;;;3.03;1.83;;;20.10;99.90;;;;;;5013008;28;20861;-83
2023/07/28 08:36:46;;;;;;;1.13;0.70;;;20.10;99.90;;;;;;5013691;28;20490;-83
2023/07/28 08:39:14;;;;;;;0.90;0.90;;;20.00;99.90;;;;;;5013607;28;20454;-83
2023/07/28 08:41:41;;;;;;;1.00;0.90;;;20.00;99.90;;;;;;5013491;28;20451;-84
2023/07/28 08:44:08;;;;;;;0.80;0.80;;;20.10;99.90;;;;;;5013386;28;20495;-83
2023/07/28 08:46:35;;;;;;;0.90;0.90;;;20.30;99.90;;;;;;5013258;28;20443;-83
2023/07/28 08:49:02;;;;;;;0.80;0.80;;;20.60;99.90;;;;;;5017173;28;20461;-83
2023/07/28 08:51:29;;;;;;;1.13;0.93;;;20.90;99.90;;;;;;5017591;28;20538;-84
2023/07/28 08:53:57;;;;;;;1.10;0.70;;;21.20;99.90;;;;;;5017433;28;20470;-83
2023/07/28 08:56:24;;;;;;;0.80;0.70;;;21.50;99.90;;;;;;5017707;28;20435;-83
2023/07/28 08:58:58;;;;;;;9.33;0.73;;;21.80;99.90;;;;;;5018034;28;20836;-82
2023/07/28 09:01:25;;;;;;;1.10;0.80;;;22.00;99.90;;;;;;5017449;28;20427;-82
2023/07/28 09:03:52;;;;;;;1.00;0.70;;;22.10;99.90;;;;;;5017434;28;20486;-83
2023/07/28 09:06:19;;;;;;;0.50;0.50;;;22.10;99.90;;;;;;5017320;28;20446;-83
2023/07/28 09:08:46;;;;;;;0.60;0.60;;;22.10;99.90;;;;;;5017243;28;20455;-82
2023/07/28 09:11:14;;;;;;;1.00;0.77;;;22.00;99.90;;;;;;5017205;28;20470;-82
2023/07/28 09:13:42;;;;;;;1.67;0.70;;;22.00;99.90;;;;;;5017666;28;20812;-84
2023/07/28 09:16:17;;;;;;;0.80;0.80;;;21.80;99.90;;;;;;5017276;28;20450;-84
2023/07/28 09:18:44;;;;;;;0.90;0.90;;;21.60;99.90;;;;;;5016969;28;20858;-83
2023/07/28 09:21:18;;;;;;;1.63;0.93;;;21.50;99.90;;;;;;5016807;28;20923;-87
2023/07/28 09:23:45;;;;;;;1.13;0.80;;;21.20;99.90;;;;;;5017634;28;20571;-90
2023/07/28 09:26:14;;;;;;;1.07;0.67;;;21.10;99.90;;;;;;5018319;28;20431;-88
2023/07/28 09:28:42;;;;;;;1.03;0.63;;;21.00;99.90;;;;;;5017646;28;20453;-88
2023/07/28 09:31:10;;;;;;;0.90;0.80;;;20.80;99.90;;;;;;5017823;28;20889;-87
2023/07/28 09:33:42;;;;;;;0.77;0.70;;;20.70;99.90;;;;;;5017921;28;20470;-88
2023/07/28 09:36:10;;;;;;;0.93;0.70;;;20.70;99.90;;;;;;5017519;28;20439;-88
2023/07/28 09:38:40;;;;;;;0.57;0.57;;;20.80;99.90;;;;;;5017633;28;20806;-88
2023/07/28 09:41:08;;;;;;;0.50;0.50;;;20.90;99.90;;;;;;5016724;28;20928;-80
2023/07/28 09:43:36;;;;;;;1.37;0.80;;;21.00;99.90;;;;;;5016341;28;20497;-80
2023/07/28 09:46:06;;;;;;;1.30;0.63;;;21.10;99.90;;;;;;5016480;28;20542;-80
2023/07/28 09:48:33;;;;;;;0.80;0.60;;;21.20;99.90;;;;;;5016438;28;20550;-80
2023/07/28 09:51:04;;;;;;;1.10;0.60;;;21.20;99.90;;;;;;5016196;28;20431;-80
2023/07/28 09:53:35;;;;;;;1.17;0.60;;;21.20;99.90;;;;;;5016316;28;20491;-80
2023/07/28 09:56:03;;;;;;;0.60;0.60;;;21.10;99.90;;;;;;5016355;28;20436;-80
2023/07/28 09:58:34;;;;;;;0.60;0.50;;;21.10;99.90;;;;;;5016170;28;20505;-80
2023/07/28 10:01:05;;;;;;;1.70;0.80;;;21.10;99.90;;;;;;5016356;28;20435;-80
2023/07/28 10:03:33;;;;;;;4.10;0.77;;;21.10;99.90;;;;;;5016451;28;20574;-80
2023/07/28 10:06:01;;;;;;;0.60;0.60;;;21.10;99.90;;;;;;5015952;28;20446;-80
2023/07/28 10:08:28;;;;;;;0.67;0.67;;;21.20;99.90;;;;;;5016546;28;20526;-80
2023/07/28 10:10:55;;;;;;;0.70;0.67;;;21.20;99.90;;;;;;5015757;28;20451;-80
2023/07/28 10:13:23;;;;;;;0.60;0.60;;;21.40;99.90;;;;;;5016028;28;20818;-80
2023/07/28 10:15:51;;;;;;;0.60;0.60;;;21.40;99.90;;;;;;5016115;28;20891;-80
2023/07/28 10:18:20;;;;;;;0.83;0.70;;;21.40;99.90;;;;;;5015926;28;20458;-80
2023/07/28 10:20:49;;;;;;;0.90;0.70;;;21.40;99.90;;;;;;5015908;28;20461;-79
2023/07/28 10:23:18;;;;;;;0.97;0.87;;;21.30;99.90;;;;;;5015637;28;20975;-79
2023/07/28 10:25:46;;;;;;;0.70;0.60;;;21.30;99.90;;;;;;5015570;28;20455;-79
2023/07/28 10:28:30;;;;;;;0.90;0.60;;;21.40;99.90;;;;;;5015445;28;20940;-80
2023/07/28 10:30:59;;;;;;;0.90;0.70;;;21.50;99.90;;;;;;5014674;28;20789;-80
2023/07/28 10:33:38;;;;;;;0.93;0.73;;;21.60;99.90;;;;;;5015160;28;20452;-80
2023/07/28 10:36:13;;;;;;;0.70;0.70;;;21.90;99.90;;;;;;5016191;28;20442;-80
2023/07/28 10:38:43;;;;;;;3.90;0.70;;;22.10;99.90;;;;;;5015584;28;20447;-79
2023/07/28 10:41:12;;;;;;;0.80;0.80;;;22.20;99.90;;;;;;5015489;28;20533;-79
2023/07/28 10:43:39;;;;;;;0.87;0.77;;;22.20;99.90;;;;;;5015273;28;20514;-79
2023/07/28 10:46:08;;;;;;;1.10;1.00;;;22.20;99.90;;;;;;5015419;28;20455;-80
2023/07/28 10:48:37;;;;;;;0.70;0.70;;;22.30;99.90;;;;;;5015029;28;20948;-80
2023/07/28 10:51:04;;;;;;;0.70;0.50;;;22.30;99.90;;;;;;5015359;28;20526;-79
2023/07/28 10:53:33;;;;;;;1.30;1.20;;;22.40;99.90;;;;;;5015263;28;20582;-80
2023/07/28 10:56:01;;;;;;;0.50;0.50;;;22.40;99.90;;;;;;5014965;28;20482;-79
2023/07/28 10:58:27;;;;;;;0.87;0.70;;;22.30;99.90;;;;;;5014902;28;20204;-80
2023/07/28 11:00:54;;;;;;;5.17;1.50;;;22.30;99.90;;;;;;5015166;28;20450;-80
2023/07/28 11:03:23;;;;;;;1.40;0.70;;;22.30;99.90;;;;;;5014914;28;20311;-79
2023/07/28 11:05:51;;;;;;;0.70;0.60;;;22.30;99.90;;;;;;5015072;28;20208;-79
2023/07/28 11:08:19;;;;;;;1.00;0.70;;;22.30;99.90;;;;;;5014970;28;20210;-79
2023/07/28 11:10:45;;;;;;;2.40;0.70;;;22.30;99.90;;;;;;5014414;28;20428;-79
2023/07/28 11:13:12;;;;;;;1.10;0.90;;;22.20;99.90;;;;;;5014843;28;20228;-79
2023/07/28 11:15:39;;;;;;;2.43;0.70;;;22.20;99.90;;;;;;5014907;28;20455;-79
2023/07/28 11:18:06;;;;;;;1.10;0.70;;;22.30;99.90;;;;;;5014512;28;20948;-79
2023/07/28 11:20:33;;;;;;;1.53;0.90;;;22.40;99.90;;;;;;5014782;28;20456;-79
2023/07/28 11:23:04;;;;;;;0.80;0.80;;;22.40;99.90;;;;;;5014390;28;20235;-79
2023/07/28 11:25:31;;;;;;;1.53;0.97;;;22.40;99.90;;;;;;5014691;28;20243;-79
2023/07/28 11:27:59;;;;;;;1.43;0.97;;;22.40;99.90;;;;;;5014626;28;20204;-79
2023/07/28 11:30:25;;;;;;;1.20;1.03;;;22.40;99.90;;;;;;5014681;28;20204;-84
2023/07/28 11:32:54;;;;;;;0.90;0.70;;;22.30;99.90;;;;;;5014523;28;20818;-84
2023/07/28 11:35:23;;;;;;;1.20;0.70;;;22.20;99.90;;;;;;5014340;28;20487;-84
2023/07/28 11:37:51;;;;;;;1.87;0.90;;;22.20;99.90;;;;;;5014554;28;20203;-84
2023/07/28 11:40:21;;;;;;;1.00;0.90;;;22.20;99.90;;;;;;5014424;28;20455;-84
2023/07/28 11:42:49;;;;;;;0.80;0.60;;;22.10;99.90;;;;;;5014065;28;20970;-84
2023/07/28 11:45:19;;;;;;;0.73;0.73;;;22.10;99.90;;;;;;5014302;28;20482;-84
2023/07/28 11:47:59;;;;;;;0.80;0.80;;;21.90;99.90;;;;;;5014353;28;20489;-84
2023/07/28 11:50:27;;;;;;;0.90;0.80;;;21.60;99.90;;;;;;5014277;28;20450;-84
2023/07/28 11:52:56;;;;;;;1.00;0.90;;;21.10;99.90;;;;;;5013853;28;20447;-84
2023/07/28 11:55:24;;;;;;;2.90;1.07;;;20.70;99.90;;;;;;5014415;28;20443;-84
2023/07/28 11:57:52;;;;;;;1.57;0.87;;;20.40;99.90;;;;;;5014270;28;20458;-84
2023/07/28 12:00:26;;;;;;;1.67;1.23;;;20.10;99.90;;;;;;5014410;28;20467;-83
2023/07/28 12:03:02;;;;;;;1.40;1.10;;;20.00;99.90;;;;;;5014124;28;20446;-83
2023/07/28 12:05:28;;;;;;;0.80;0.80;;;19.90;99.90;;;;;;5014089;28;20466;-83
2023/07/28 12:07:55;;;;;;;13.53;1.00;;;19.90;99.90;;;;;;5013790;28;20493;-84
2023/07/28 12:10:24;;;;;;;3.23;0.87;;;19.90;99.90;;;;;;5014089;28;20439;-83
2023/07/28 12:12:51;;;;;;;1.33;1.03;;;20.00;99.90;;;;;;5014724;28;20440;-83
2023/07/28 12:15:23;;;;;;;1.20;0.93;;;20.10;99.90;;;;;;5013930;28;20952;-83
2023/07/28 12:18:08;;;;;;;2.60;0.80;;;20.30;99.90;;;;;;5014520;28;20447;-84
2023/07/28 12:20:35;;;;;;;1.23;1.00;;;20.40;99.90;;;;;;5014605;28;20442;-84
2023/07/28 12:23:02;;;;;;;4.57;1.17;;;20.40;99.90;;;;;;5013107;28;20869;-84
2023/07/28 12:25:30;;;;;;;1.73;1.30;;;20.40;99.90;;;;;;5013563;28;20485;-84
2023/07/28 12:27:57;;;;;;;1.23;1.03;;;20.50;99.90;;;;;;5013739;28;20467;-83
2023/07/28 12:30:24;;;;;;;1.10;1.00;;;20.60;99.90;;;;;;5014013;28;20451;-83
2023/07/28 12:32:50;;;;;;;1.60;0.90;;;20.80;99.90;;;;;;5014103;28;20455;-84
2023/07/28 12:35:17;;;;;;;1.37;1.00;;;21.00;99.90;;;;;;5013425;28;20475;-83
2023/07/28 12:37:44;;;;;;;1.30;1.13;;;21.20;99.90;;;;;;5014022;28;20459;-84
2023/07/28 12:40:12;;;;;;;1.67;0.90;;;21.40;99.90;;;;;;5014000;28;20486;-83
2023/07/28 12:42:40;;;;;;;2.00;1.00;;;21.50;99.90;;;;;;5013573;28;20435;-84
2023/07/28 12:45:08;;;;;;;1.73;1.13;;;21.70;99.90;;;;;;5013381;28;20479;-84
2023/07/28 12:47:34;;;;;;;1.57;1.47;;;21.80;99.90;;;;;;5014225;28;20482;-85
2023/07/28 12:50:01;;;;;;;1.17;0.90;;;21.70;99.90;;;;;;5013436;28;20525;-85